createdAt,value
2018-10-19T00:01:58.005Z,2.33
2018-10-19T00:04:26.517Z,2.43
2018-10-19T00:06:55.209Z,2.17
2018-10-19T00:09:23.732Z,2.20
2018-10-19T00:11:52.290Z,2.20
2018-10-19T00:14:20.853Z,2.47
2018-10-19T00:16:49.348Z,1.80
2018-10-19T00:19:17.871Z,1.97
2018-10-19T00:21:46.401Z,2.20
2018-10-19T00:24:14.961Z,2.30
2018-10-19T00:26:43.493Z,2.90
2018-10-19T00:29:12.166Z,2.27
2018-10-19T00:31:40.658Z,2.37
2018-10-19T00:34:09.483Z,2.30
2018-10-19T00:36:38.087Z,2.10
2018-10-19T00:39:09.087Z,2.90
2018-10-19T00:41:37.621Z,2.33
2018-10-19T00:44:06.256Z,2.40
2018-10-19T00:46:34.824Z,2.27
2018-10-19T00:49:04.664Z,2.50
2018-10-19T00:51:33.712Z,1.93
2018-10-19T00:54:03.792Z,2.17
2018-10-19T00:56:32.313Z,2.00
2018-10-19T00:59:00.835Z,2.23
2018-10-19T01:01:29.632Z,2.20
2018-10-19T01:03:58.131Z,2.20
2018-10-19T01:06:26.696Z,2.63
2018-10-19T01:08:55.370Z,2.00
2018-10-19T01:11:23.905Z,2.30
2018-10-19T01:13:52.489Z,2.60
2018-10-19T01:16:21.138Z,2.20
2018-10-19T01:18:49.675Z,2.27
2018-10-19T01:21:18.402Z,2.50
2018-10-19T01:23:46.895Z,2.10
2018-10-19T01:26:15.664Z,2.97
2018-10-19T01:28:44.186Z,2.67
2018-10-19T01:31:12.727Z,2.53
2018-10-19T01:33:41.291Z,2.80
2018-10-19T01:36:09.966Z,2.10
2018-10-19T01:38:38.531Z,3.20
2018-10-19T01:41:07.060Z,2.43
2018-10-19T01:43:35.629Z,2.60
2018-10-19T01:46:05.257Z,2.70
2018-10-19T01:48:33.859Z,2.13
2018-10-19T01:51:03.912Z,2.33
2018-10-19T01:53:32.417Z,2.23
2018-10-19T01:56:00.926Z,2.83
2018-10-19T01:58:29.676Z,2.20
2018-10-19T02:00:58.290Z,2.83
2018-10-19T02:03:27.055Z,2.97
2018-10-19T02:05:55.564Z,2.50
2018-10-19T02:08:24.066Z,2.60
2018-10-19T02:10:52.605Z,2.50
2018-10-19T02:13:21.128Z,2.20
2018-10-19T02:15:49.757Z,2.40
2018-10-19T02:18:18.293Z,2.27
2018-10-19T02:20:46.793Z,2.60
2018-10-19T02:23:15.335Z,2.60
2018-10-19T02:25:43.874Z,2.37
2018-10-19T02:28:12.419Z,2.50
2018-10-19T02:30:40.904Z,2.53
2018-10-19T02:33:09.565Z,3.20
2018-10-19T02:35:38.038Z,2.60
2018-10-19T02:38:06.832Z,3.53
2018-10-19T02:40:35.437Z,2.77
2018-10-19T02:43:07.064Z,2.60
2018-10-19T02:45:39.687Z,2.30
2018-10-19T02:48:08.483Z,3.00
2018-10-19T02:50:37.648Z,2.50
2018-10-19T02:53:07.578Z,2.97
2018-10-19T02:55:36.207Z,2.60
2018-10-19T02:58:06.053Z,3.07
2018-10-19T03:00:34.595Z,2.63
2018-10-19T03:03:05.717Z,2.80
2018-10-19T03:05:34.201Z,2.60
2018-10-19T03:08:04.430Z,3.20
2018-10-19T03:10:32.967Z,2.60
2018-10-19T03:13:03.146Z,2.83
2018-10-19T03:15:31.680Z,2.60
2018-10-19T03:18:00.203Z,2.93
2018-10-19T03:20:28.866Z,2.60
2018-10-19T03:22:57.481Z,2.97
2018-10-19T03:25:25.989Z,2.83
2018-10-19T03:27:54.527Z,2.60
2018-10-19T03:30:23.416Z,2.63
2018-10-19T03:32:52.006Z,2.60
2018-10-19T03:35:20.578Z,3.03
2018-10-19T03:37:49.114Z,2.97
2018-10-19T03:40:17.642Z,2.77
2018-10-19T03:42:46.208Z,2.97
2018-10-19T03:45:14.822Z,3.30
2018-10-19T03:47:43.336Z,3.23
2018-10-19T03:50:13.095Z,3.43
2018-10-19T03:52:41.665Z,3.17
2018-10-19T03:55:10.272Z,3.57
2018-10-19T03:57:38.768Z,2.93
2018-10-19T04:00:07.381Z,2.77
2018-10-19T04:02:35.902Z,3.00
2018-10-19T04:05:06.948Z,3.37
2018-10-19T04:07:35.464Z,2.93
2018-10-19T04:10:06.180Z,2.80
2018-10-19T04:12:34.693Z,3.03
2018-10-19T04:15:05.107Z,3.30
2018-10-19T04:17:33.711Z,3.40
2018-10-19T04:20:04.170Z,3.53
2018-10-19T04:22:32.722Z,3.20
2018-10-19T04:25:03.631Z,3.03
2018-10-19T04:27:32.200Z,3.37
2018-10-19T04:30:00.660Z,3.20
2018-10-19T04:32:29.427Z,3.40
2018-10-19T04:34:58.163Z,2.83
2018-10-19T04:37:26.699Z,3.50
2018-10-19T04:39:55.201Z,3.23
2018-10-19T04:42:23.848Z,3.57
2018-10-19T04:44:52.412Z,3.20
2018-10-19T04:47:21.285Z,3.73
2018-10-19T04:49:49.813Z,3.57
2018-10-19T04:52:18.357Z,3.63
2018-10-19T04:54:46.885Z,3.63
2018-10-19T04:57:15.483Z,3.87
2018-10-19T04:59:44.000Z,3.73
2018-10-19T05:02:12.508Z,3.83
2018-10-19T05:04:41.170Z,3.90
2018-10-19T05:07:09.625Z,4.33
2018-10-19T05:09:40.487Z,3.50
2018-10-19T05:12:09.045Z,3.80
2018-10-19T05:14:37.622Z,4.07
2018-10-19T05:17:06.494Z,3.67
2018-10-19T05:19:34.940Z,3.80
2018-10-19T05:22:06.694Z,4.00
2018-10-19T05:24:35.269Z,3.90
2018-10-19T05:27:06.117Z,4.23
2018-10-19T05:29:34.618Z,4.27
2018-10-19T05:32:04.561Z,4.43
2018-10-19T05:34:33.066Z,4.23
2018-10-19T05:37:03.858Z,5.00
2018-10-19T05:39:32.592Z,4.40
2018-10-19T05:42:02.798Z,4.80
2018-10-19T05:44:31.307Z,5.53
2018-10-19T05:46:59.874Z,4.57
2018-10-19T05:49:28.403Z,4.73
2018-10-19T05:51:56.987Z,5.27
2018-10-19T05:54:26.092Z,5.00
2018-10-19T05:56:54.656Z,5.13
2018-10-19T05:59:23.388Z,5.23
2018-10-19T06:01:52.273Z,5.30
2018-10-19T06:04:20.774Z,5.17
2018-10-19T06:06:49.259Z,5.30
2018-10-19T06:09:17.831Z,5.57
2018-10-19T06:11:46.422Z,5.27
2018-10-19T06:14:14.976Z,6.03
2018-10-19T06:16:43.477Z,5.97
2018-10-19T06:19:12.009Z,6.83
2018-10-19T06:21:40.526Z,6.53
2018-10-19T06:24:09.634Z,6.33
2018-10-19T06:26:38.196Z,6.00
2018-10-19T06:29:06.869Z,7.07
2018-10-19T06:31:35.869Z,6.57
2018-10-19T06:34:05.320Z,6.90
2018-10-19T06:36:33.825Z,6.57
2018-10-19T06:39:04.862Z,6.80
2018-10-19T06:41:33.392Z,6.33
2018-10-19T06:44:03.118Z,6.70
2018-10-19T06:46:31.777Z,6.90
2018-10-19T06:49:00.389Z,7.40
2018-10-19T06:51:30.549Z,6.50
2018-10-19T06:53:59.131Z,7.10
2018-10-19T06:56:27.821Z,6.23
2018-10-19T06:58:56.468Z,6.87
2018-10-19T07:01:24.998Z,5.67
2018-10-19T07:03:54.029Z,6.37
2018-10-19T07:06:22.506Z,6.00
2018-10-19T07:08:51.006Z,6.50
2018-10-19T07:11:19.637Z,6.73
2018-10-19T07:13:48.423Z,6.83
2018-10-19T07:16:16.974Z,6.33
2018-10-19T07:18:45.518Z,6.50
2018-10-19T07:21:14.167Z,6.40
2018-10-19T07:23:42.740Z,6.87
2018-10-19T07:26:11.283Z,7.43
2018-10-19T07:28:39.835Z,7.47
2018-10-19T07:31:08.440Z,6.50
2018-10-19T07:33:36.940Z,8.17
2018-10-19T07:36:05.933Z,7.33
2018-10-19T07:38:34.592Z,7.20
2018-10-19T07:41:05.007Z,7.10
2018-10-19T07:43:33.501Z,7.13
2018-10-19T07:46:03.912Z,7.07
2018-10-19T07:48:32.506Z,6.80
2018-10-19T07:51:00.981Z,7.00
2018-10-19T07:53:29.631Z,7.03
2018-10-19T07:55:58.175Z,7.20
2018-10-19T07:58:26.726Z,8.07
2018-10-19T08:00:55.255Z,7.67
2018-10-19T08:03:23.889Z,8.23
2018-10-19T08:05:52.423Z,7.93
2018-10-19T08:08:20.994Z,8.43
2018-10-19T08:10:49.525Z,8.30
2018-10-19T08:13:18.070Z,7.43
2018-10-19T08:15:46.671Z,7.43
2018-10-19T08:18:15.304Z,7.67
2018-10-19T08:20:44.240Z,7.47
2018-10-19T08:23:12.882Z,7.20
2018-10-19T08:25:41.458Z,7.87
2018-10-19T08:28:10.368Z,7.33
2018-10-19T08:30:38.941Z,7.37
2018-10-19T08:33:07.825Z,6.73
2018-10-19T08:35:36.405Z,7.47
2018-10-19T08:38:05.212Z,6.60
2018-10-19T08:40:33.953Z,7.13
2018-10-19T08:43:03.819Z,6.47
2018-10-19T08:45:32.418Z,6.33
2018-10-19T08:48:02.793Z,6.30
2018-10-19T08:50:31.352Z,6.43
2018-10-19T08:52:59.911Z,6.60
2018-10-19T08:55:28.551Z,8.27
2018-10-19T08:57:57.151Z,6.10
2018-10-19T09:00:25.591Z,6.90
2018-10-19T09:02:54.999Z,5.70
2018-10-19T09:05:30.151Z,5.70
2018-10-19T09:07:58.668Z,5.80
2018-10-19T09:10:27.212Z,5.70
2018-10-19T09:12:55.836Z,6.23
2018-10-19T09:15:24.266Z,5.70
2018-10-19T09:17:52.987Z,5.60
2018-10-19T09:20:21.480Z,5.00
2018-10-19T09:22:49.991Z,5.30
2018-10-19T09:25:18.530Z,5.47
2018-10-19T09:27:47.041Z,5.43
2018-10-19T09:30:15.605Z,5.40
2018-10-19T09:32:44.102Z,5.67
2018-10-19T09:35:12.758Z,5.10
2018-10-19T09:37:41.220Z,4.90
2018-10-19T09:40:09.787Z,5.47
2018-10-19T09:42:38.584Z,5.50
2018-10-19T09:45:07.933Z,5.20
2018-10-19T09:47:36.530Z,4.87
2018-10-19T09:50:05.676Z,5.23
2018-10-19T09:52:34.248Z,4.83
2018-10-19T09:55:04.625Z,5.40
2018-10-19T09:57:33.314Z,5.27
2018-10-19T10:00:03.149Z,5.37
2018-10-19T10:02:31.684Z,4.87
2018-10-19T10:05:00.236Z,5.67
2018-10-19T10:07:28.861Z,4.80
2018-10-19T10:09:57.355Z,4.60
2018-10-19T10:12:25.902Z,5.07
2018-10-19T10:14:54.429Z,4.20
2018-10-19T10:17:22.952Z,5.30
2018-10-19T10:19:51.526Z,4.37
2018-10-19T10:22:20.172Z,4.17
2018-10-19T10:24:48.872Z,3.67
2018-10-19T10:27:17.442Z,4.30
2018-10-19T10:29:46.031Z,3.70
2018-10-19T10:32:14.875Z,4.53
2018-10-19T10:34:43.389Z,4.13
2018-10-19T10:37:11.985Z,3.83
2018-10-19T10:39:40.505Z,4.30
2018-10-19T10:42:09.276Z,4.17
2018-10-19T10:44:37.830Z,4.07
2018-10-19T10:47:06.662Z,4.27
2018-10-19T10:49:35.182Z,4.10
2018-10-19T10:52:05.576Z,4.10
2018-10-19T10:54:34.471Z,4.23
2018-10-19T10:57:04.617Z,4.00
2018-10-19T10:59:33.157Z,3.73
2018-10-19T11:02:07.848Z,4.27
2018-10-19T11:04:36.350Z,4.03
2018-10-19T11:07:05.270Z,3.73
2018-10-19T11:09:33.866Z,4.53
2018-10-19T11:12:04.781Z,4.40
2018-10-19T11:14:33.280Z,4.53
2018-10-19T11:17:02.947Z,4.13
2018-10-19T11:19:31.494Z,4.20
2018-10-19T11:22:00.053Z,4.17
2018-10-19T11:24:28.567Z,4.67
2018-10-19T11:26:57.702Z,4.63
2018-10-19T11:29:26.311Z,5.90
2018-10-19T11:31:54.939Z,4.50
2018-10-19T11:34:23.537Z,4.53
2018-10-19T11:36:52.044Z,4.77
2018-10-19T11:39:20.598Z,4.97
2018-10-19T11:41:49.160Z,4.70
2018-10-19T11:44:17.801Z,4.63
2018-10-19T11:46:46.313Z,4.00
2018-10-19T11:49:14.907Z,3.83
2018-10-19T11:51:43.494Z,4.00
2018-10-19T11:54:12.003Z,4.23
2018-10-19T11:56:40.901Z,3.80
2018-10-19T11:59:09.477Z,4.07
2018-10-19T12:01:38.352Z,4.43
2018-10-19T12:04:06.915Z,4.30
2018-10-19T12:06:35.443Z,4.17
2018-10-19T12:09:08.546Z,4.20
2018-10-19T12:11:37.104Z,3.27
2018-10-19T12:14:05.634Z,3.20
2018-10-19T12:16:34.234Z,3.90
2018-10-19T12:19:04.270Z,3.40
2018-10-19T12:21:32.843Z,3.40
2018-10-19T12:24:02.834Z,3.27
2018-10-19T12:26:31.420Z,3.50
2018-10-19T12:28:59.996Z,4.20
2018-10-19T12:31:28.472Z,3.50
2018-10-19T12:33:57.030Z,2.80
2018-10-19T12:36:25.537Z,3.43
2018-10-19T12:38:54.088Z,3.00
2018-10-19T12:41:22.669Z,3.20
2018-10-19T12:43:51.202Z,3.13
2018-10-19T12:46:33.235Z,3.77
2018-10-19T12:49:02.708Z,3.53
2018-10-19T12:51:31.254Z,3.60
2018-10-19T12:53:59.828Z,3.00
2018-10-19T12:56:28.330Z,2.70
2018-10-19T12:58:57.100Z,2.60
2018-10-19T13:01:26.933Z,2.20
2018-10-19T13:03:55.502Z,3.07
2018-10-19T13:06:24.040Z,3.13
2018-10-19T13:08:52.785Z,2.60
2018-10-19T13:11:21.430Z,2.80
2018-10-19T13:13:50.005Z,2.80
2018-10-19T13:16:18.672Z,2.90
2018-10-19T13:18:47.139Z,2.70
2018-10-19T13:21:16.356Z,3.00
2018-10-19T13:23:44.881Z,3.00
2018-10-19T13:26:13.470Z,2.80
2018-10-19T13:28:42.734Z,2.43
2018-10-19T13:31:12.319Z,2.60
2018-10-19T13:33:40.829Z,2.83
2018-10-19T13:36:09.454Z,2.73
2018-10-19T13:38:37.993Z,2.53
2018-10-19T13:41:06.573Z,2.80
2018-10-19T13:43:36.157Z,2.90
2018-10-19T13:46:05.815Z,2.70
2018-10-19T13:48:34.401Z,2.93
2018-10-19T13:51:04.948Z,3.50
2018-10-19T13:53:33.497Z,3.07
2018-10-19T13:56:03.262Z,2.93
2018-10-19T13:58:32.299Z,2.77
2018-10-19T14:01:00.830Z,2.60
2018-10-19T14:03:30.413Z,2.63
2018-10-19T14:05:59.137Z,3.07
2018-10-19T14:08:27.661Z,2.77
2018-10-19T14:10:56.140Z,2.93
2018-10-19T14:13:24.669Z,2.77
2018-10-19T14:15:53.181Z,2.80
2018-10-19T14:18:21.687Z,2.87
2018-10-19T14:20:50.598Z,3.20
2018-10-19T14:23:19.178Z,2.80
2018-10-19T14:25:47.726Z,3.17
2018-10-19T14:28:19.877Z,2.87
2018-10-19T14:30:48.418Z,3.77
2018-10-19T14:33:17.029Z,3.33
2018-10-19T14:35:45.730Z,3.60
2018-10-19T14:38:14.232Z,3.33
2018-10-19T14:40:43.170Z,3.37
2018-10-19T14:43:11.782Z,3.07
2018-10-19T14:45:40.329Z,3.57
2018-10-19T14:48:08.898Z,3.60
2018-10-19T14:50:37.441Z,3.30
2018-10-19T14:53:06.157Z,3.30
2018-10-19T14:55:34.700Z,3.30
2018-10-19T14:58:05.043Z,4.17
2018-10-19T15:00:33.605Z,3.40
2018-10-19T15:03:04.249Z,3.80
2018-10-19T15:05:32.892Z,4.10
2018-10-19T15:08:03.547Z,3.83
2018-10-19T15:10:32.680Z,4.10
2018-10-19T15:13:00.957Z,3.50
2018-10-19T15:15:30.231Z,3.77
2018-10-19T15:17:58.879Z,4.33
2018-10-19T15:20:27.532Z,9.90
2018-10-19T15:22:56.124Z,4.93
2018-10-19T15:25:24.693Z,3.90
2018-10-19T15:27:53.212Z,4.27
2018-10-19T15:30:21.874Z,5.47
2018-10-19T15:32:50.388Z,4.53
2018-10-19T15:35:19.023Z,3.73
2018-10-19T15:37:47.579Z,3.80
2018-10-19T15:40:16.079Z,4.00
2018-10-19T15:42:44.662Z,4.50
2018-10-19T15:45:13.646Z,4.23
2018-10-19T15:47:42.215Z,4.40
2018-10-19T15:50:10.890Z,4.43
2018-10-19T15:52:39.794Z,4.53
2018-10-19T15:55:09.078Z,5.40
2018-10-19T15:57:37.724Z,4.87
2018-10-19T16:00:08.313Z,4.60
2018-10-19T16:02:36.868Z,4.07
2018-10-19T16:05:08.651Z,4.00
2018-10-19T16:07:37.192Z,4.23
2018-10-19T16:10:06.607Z,4.67
2018-10-19T16:12:35.158Z,4.53
2018-10-19T16:15:05.993Z,4.83
2018-10-19T16:17:34.555Z,5.03
2018-10-19T16:20:08.063Z,4.47
2018-10-19T16:22:37.738Z,4.53
2018-10-19T16:25:07.006Z,4.90
2018-10-19T16:27:36.118Z,4.27
2018-10-19T16:30:06.910Z,4.10
2018-10-19T16:32:35.429Z,4.23
2018-10-19T16:35:05.688Z,4.60
2018-10-19T16:37:35.444Z,4.60
2018-10-19T16:40:06.156Z,5.10
2018-10-19T16:42:34.717Z,4.90
2018-10-19T16:45:04.923Z,5.67
2018-10-19T16:47:35.293Z,5.43
2018-10-19T16:50:07.401Z,5.00
2018-10-19T16:52:36.022Z,4.50
2018-10-19T16:55:05.256Z,4.73
2018-10-19T16:57:34.206Z,4.27
2018-10-19T17:00:04.807Z,5.00
2018-10-19T17:02:33.321Z,4.83
2018-10-19T17:05:03.164Z,4.73
2018-10-19T17:07:31.686Z,5.10
2018-10-19T17:10:00.263Z,6.07
2018-10-19T17:12:28.784Z,8.77
2018-10-19T17:14:57.370Z,8.80
2018-10-19T17:17:25.950Z,8.67
2018-10-19T17:19:54.478Z,8.57
2018-10-19T17:22:23.002Z,6.90
2018-10-19T17:24:51.640Z,7.30
2018-10-19T17:27:20.218Z,6.63
2018-10-19T17:29:49.028Z,5.90
2018-10-19T17:32:17.553Z,5.57
2018-10-19T17:34:46.082Z,6.27
2018-10-19T17:37:21.312Z,6.57
2018-10-19T17:39:50.839Z,6.27
2018-10-19T17:42:19.434Z,7.40
2018-10-19T17:44:48.075Z,8.07
2018-10-19T17:47:16.681Z,8.03
2018-10-19T17:49:45.219Z,7.87
2018-10-19T17:52:13.785Z,8.40
2018-10-19T17:54:42.334Z,7.43
2018-10-19T17:57:10.961Z,6.80
2018-10-19T17:59:39.462Z,7.30
2018-10-19T18:02:08.014Z,7.30
2018-10-19T18:04:36.590Z,7.17
2018-10-19T18:07:06.306Z,7.07
2018-10-19T18:09:34.955Z,8.33
2018-10-19T18:12:05.054Z,8.57
2018-10-19T18:14:33.627Z,9.27
2018-10-19T18:17:03.920Z,9.70
2018-10-19T18:19:32.736Z,9.97
2018-10-19T18:22:03.391Z,8.33
2018-10-19T18:24:31.786Z,8.03
2018-10-19T18:27:00.418Z,7.87
2018-10-19T18:29:29.027Z,7.87
2018-10-19T18:31:57.627Z,9.20
2018-10-19T18:34:26.142Z,9.13
2018-10-19T18:36:54.782Z,9.33
2018-10-19T18:39:23.489Z,8.83
2018-10-19T18:41:52.029Z,9.70
2018-10-19T18:44:20.633Z,9.73
2018-10-19T18:46:50.085Z,10.13
2018-10-19T18:49:18.923Z,10.17
2018-10-19T18:51:48.658Z,13.80
2018-10-19T18:54:17.238Z,12.40
2018-10-19T18:56:46.166Z,12.33
2018-10-19T18:59:14.873Z,13.57
2018-10-19T19:01:43.528Z,14.57
2018-10-19T19:04:12.492Z,13.73
2018-10-19T19:06:41.123Z,13.67
2018-10-19T19:09:12.222Z,13.27
2018-10-19T19:11:40.828Z,13.43
2018-10-19T19:14:09.538Z,14.50
2018-10-19T19:16:38.165Z,14.23
2018-10-19T19:19:06.883Z,14.80
2018-10-19T19:21:35.689Z,14.57
2018-10-19T19:24:10.687Z,14.77
2018-10-19T19:26:39.294Z,16.00
2018-10-19T19:29:08.817Z,14.63
2018-10-19T19:31:38.188Z,15.57
2018-10-19T19:34:12.028Z,16.37
2018-10-19T19:36:40.928Z,14.97
2018-10-19T19:39:10.153Z,16.17
2018-10-19T19:41:43.954Z,16.57
2018-10-19T19:44:12.641Z,15.73
2018-10-19T19:46:41.647Z,16.07
2018-10-19T19:49:15.343Z,16.10
2018-10-19T19:51:44.390Z,16.93
2018-10-19T19:54:13.005Z,15.73
2018-10-19T19:56:41.802Z,16.37
2018-10-19T19:59:10.839Z,15.50
2018-10-19T20:01:45.710Z,15.90
2018-10-19T20:04:14.336Z,16.70
2018-10-19T20:06:43.113Z,18.23
2018-10-19T20:09:12.155Z,18.73
2018-10-19T20:11:41.514Z,19.77
2018-10-19T20:14:10.196Z,20.03
2018-10-19T20:16:39.275Z,20.97
2018-10-19T20:19:08.217Z,19.27
2018-10-19T20:21:36.820Z,19.77
2018-10-19T20:24:06.367Z,18.83
2018-10-19T20:26:35.218Z,19.43
2018-10-19T20:29:07.754Z,19.90
2018-10-19T20:31:37.173Z,19.40
2018-10-19T20:34:05.866Z,20.23
2018-10-19T20:36:34.404Z,18.60
2018-10-19T20:39:05.199Z,18.63
2018-10-19T20:41:33.747Z,18.07
2018-10-19T20:44:03.790Z,18.50
2018-10-19T20:46:32.381Z,18.00
2018-10-19T20:49:03.118Z,19.77
2018-10-19T20:51:31.686Z,19.20
2018-10-19T20:54:00.325Z,19.57
2018-10-19T20:56:28.883Z,19.73
2018-10-19T20:58:57.481Z,20.57
2018-10-19T21:01:26.053Z,20.53
2018-10-19T21:03:54.584Z,21.43
2018-10-19T21:06:23.109Z,20.73
2018-10-19T21:08:51.739Z,22.87
2018-10-19T21:11:20.343Z,25.10
2018-10-19T21:13:48.901Z,25.07
2018-10-19T21:16:17.464Z,25.60
2018-10-19T21:18:46.105Z,24.67
2018-10-19T21:21:15.091Z,26.73
2018-10-19T21:23:43.624Z,25.40
2018-10-19T21:26:12.339Z,26.20
2018-10-19T21:28:40.957Z,24.67
2018-10-19T21:31:09.543Z,26.13
2018-10-19T21:33:38.052Z,25.13
2018-10-19T21:36:06.640Z,24.77
2018-10-19T21:38:35.162Z,24.97
2018-10-19T21:41:05.623Z,24.47
2018-10-19T21:43:34.218Z,24.93
2018-10-19T21:46:04.522Z,24.23
2018-10-19T21:48:33.068Z,21.87
2018-10-19T21:51:02.694Z,22.80
2018-10-19T21:53:31.282Z,22.73
2018-10-19T21:55:59.881Z,23.90
2018-10-19T21:58:28.398Z,23.80
2018-10-19T22:00:57.019Z,24.33
2018-10-19T22:03:25.536Z,23.93
2018-10-19T22:05:54.068Z,22.90
2018-10-19T22:08:22.629Z,22.27
2018-10-19T22:10:51.156Z,23.80
2018-10-19T22:13:19.685Z,22.37
2018-10-19T22:15:48.213Z,21.60
2018-10-19T22:18:16.776Z,21.13
2018-10-19T22:20:45.321Z,22.23
2018-10-19T22:23:13.903Z,22.57
2018-10-19T22:25:42.581Z,22.90
2018-10-19T22:28:14.587Z,21.17
2018-10-19T22:30:43.122Z,20.73
2018-10-19T22:33:11.751Z,20.40
2018-10-19T22:35:40.256Z,21.10
2018-10-19T22:38:08.791Z,20.57
2018-10-19T22:40:37.645Z,21.20
2018-10-19T22:43:07.901Z,21.47
2018-10-19T22:45:36.455Z,20.20
2018-10-19T22:48:06.567Z,20.10
2018-10-19T22:50:35.126Z,21.57
2018-10-19T22:53:05.323Z,23.03
2018-10-19T22:55:33.854Z,23.10
2018-10-19T22:58:04.318Z,21.70
2018-10-19T23:00:32.898Z,22.00
2018-10-19T23:03:03.343Z,21.30
2018-10-19T23:05:31.827Z,21.73
2018-10-19T23:08:00.335Z,21.50
2018-10-19T23:10:28.989Z,21.07
2018-10-19T23:12:58.027Z,21.10
2018-10-19T23:15:26.508Z,22.27
2018-10-19T23:17:55.069Z,21.67
2018-10-19T23:20:23.606Z,20.70
2018-10-19T23:22:52.385Z,20.80
2018-10-19T23:25:20.891Z,21.37
2018-10-19T23:27:49.501Z,22.43
2018-10-19T23:30:18.059Z,22.40
2018-10-19T23:32:46.622Z,23.80
2018-10-19T23:35:15.335Z,22.80
2018-10-19T23:37:43.959Z,21.63
2018-10-19T23:40:12.498Z,22.73
2018-10-19T23:42:41.074Z,21.70
2018-10-19T23:45:09.869Z,22.03
2018-10-19T23:47:38.433Z,21.13
2018-10-19T23:50:07.805Z,22.37
2018-10-19T23:52:36.313Z,21.40
2018-10-19T23:55:05.667Z,22.17
2018-10-19T23:57:34.213Z,21.63
